<?xml version="1.0" encoding="UTF-8" standalone="no" ?>
<gpx xmlns="http://www.topografix.com/GPX/1/1" xmlns:xsi="http://www.w3.org/2001/XMLSchema-instance" xsi:schemaLocation="http://www.topografix.com/GPX/1/1 http://www.topografix.com/GPX/1/1/gpx.xsd" version="1.1" creator="VisuGPX - https://www.visugpx.com">
  <metadata>
    <name>11695615-Randonnée dans le Cantal </name>
  </metadata>
  <trk>
    <name><![CDATA[11695615-Randonnée dans le Cantal ]]></name>
    <trkseg>
      <trkpt lat="45.10988" lon="2.6833">
        <ele>1490</ele>
        <time>2020-07-17T19:55:23Z</time>
      </trkpt>
      <trkpt lat="45.10935" lon="2.68305">
        <ele>1488</ele>
        <time>2020-07-17T19:56:38Z</time>
      </trkpt>
      <trkpt lat="45.10915" lon="2.68293">
        <ele>1489</ele>
        <time>2020-07-17T19:57:07Z</time>
      </trkpt>
      <trkpt lat="45.10908" lon="2.68296">
        <ele>1487</ele>
        <time>2020-07-17T19:57:16Z</time>
      </trkpt>
      <trkpt lat="45.10907" lon="2.68301">
        <ele>1484</ele>
        <time>2020-07-17T19:57:21Z</time>
      </trkpt>
      <trkpt lat="45.109" lon="2.683">
        <ele>1484</ele>
        <time>2020-07-17T19:57:31Z</time>
      </trkpt>
      <trkpt lat="45.10896" lon="2.68292">
        <ele>1488</ele>
        <time>2020-07-17T19:57:40Z</time>
      </trkpt>
      <trkpt lat="45.10888" lon="2.68283">
        <ele>1492</ele>
        <time>2020-07-17T19:57:53Z</time>
      </trkpt>
      <trkpt lat="45.10882" lon="2.68285">
        <ele>1490</ele>
        <time>2020-07-17T19:58:02Z</time>
      </trkpt>
      <trkpt lat="45.10855" lon="2.68275">
        <ele>1493</ele>
        <time>2020-07-17T19:58:39Z</time>
      </trkpt>
      <trkpt lat="45.1084" lon="2.68273">
        <ele>1493</ele>
        <time>2020-07-17T19:58:59Z</time>
      </trkpt>
      <trkpt lat="45.10832" lon="2.68263">
        <ele>1499</ele>
        <time>2020-07-17T19:59:13Z</time>
      </trkpt>
      <trkpt lat="45.10811" lon="2.68257">
        <ele>1507</ele>
        <time>2020-07-17T19:59:42Z</time>
      </trkpt>
      <trkpt lat="45.10803" lon="2.68261">
        <ele>1507</ele>
        <time>2020-07-17T19:59:53Z</time>
      </trkpt>
      <trkpt lat="45.10786" lon="2.68265">
        <ele>1508</ele>
        <time>2020-07-17T20:00:16Z</time>
      </trkpt>
      <trkpt lat="45.10756" lon="2.68254">
        <ele>1524</ele>
        <time>2020-07-17T20:00:58Z</time>
      </trkpt>
      <trkpt lat="45.10729" lon="2.68258">
        <ele>1525</ele>
        <time>2020-07-17T20:01:34Z</time>
      </trkpt>
      <trkpt lat="45.10706" lon="2.68274">
        <ele>1519</ele>
        <time>2020-07-17T20:02:08Z</time>
      </trkpt>
      <trkpt lat="45.10691" lon="2.68274">
        <ele>1522</ele>
        <time>2020-07-17T20:02:28Z</time>
      </trkpt>
      <trkpt lat="45.10675" lon="2.68285">
        <ele>1522</ele>
        <time>2020-07-17T20:02:52Z</time>
      </trkpt>
      <trkpt lat="45.10668" lon="2.68287">
        <ele>1523</ele>
        <time>2020-07-17T20:03:01Z</time>
      </trkpt>
      <trkpt lat="45.10656" lon="2.683">
        <ele>1524</ele>
        <time>2020-07-17T20:03:21Z</time>
      </trkpt>
      <trkpt lat="45.10646" lon="2.683">
        <ele>1528</ele>
        <time>2020-07-17T20:03:35Z</time>
      </trkpt>
      <trkpt lat="45.10635" lon="2.68307">
        <ele>1531</ele>
        <time>2020-07-17T20:03:51Z</time>
      </trkpt>
      <trkpt lat="45.10626" lon="2.6832">
        <ele>1532</ele>
        <time>2020-07-17T20:04:08Z</time>
      </trkpt>
      <trkpt lat="45.10617" lon="2.68348">
        <ele>1526</ele>
        <time>2020-07-17T20:04:37Z</time>
      </trkpt>
      <trkpt lat="45.1061" lon="2.68348">
        <ele>1529</ele>
        <time>2020-07-17T20:04:46Z</time>
      </trkpt>
      <trkpt lat="45.10596" lon="2.6836">
        <ele>1532</ele>
        <time>2020-07-17T20:05:08Z</time>
      </trkpt>
      <trkpt lat="45.10588" lon="2.68372">
        <ele>1532</ele>
        <time>2020-07-17T20:05:24Z</time>
      </trkpt>
      <trkpt lat="45.10584" lon="2.68384">
        <ele>1530</ele>
        <time>2020-07-17T20:05:36Z</time>
      </trkpt>
      <trkpt lat="45.10584" lon="2.68398">
        <ele>1525</ele>
        <time>2020-07-17T20:05:49Z</time>
      </trkpt>
      <trkpt lat="45.10581" lon="2.68404">
        <ele>1525</ele>
        <time>2020-07-17T20:05:56Z</time>
      </trkpt>
      <trkpt lat="45.10575" lon="2.68402">
        <ele>1530</ele>
        <time>2020-07-17T20:06:04Z</time>
      </trkpt>
      <trkpt lat="45.10561" lon="2.68434">
        <ele>1527</ele>
        <time>2020-07-17T20:06:40Z</time>
      </trkpt>
      <trkpt lat="45.10532" lon="2.68466">
        <ele>1537</ele>
        <time>2020-07-17T20:07:29Z</time>
      </trkpt>
      <trkpt lat="45.10528" lon="2.68474">
        <ele>1538</ele>
        <time>2020-07-17T20:07:38Z</time>
      </trkpt>
      <trkpt lat="45.10529" lon="2.68484">
        <ele>1533</ele>
        <time>2020-07-17T20:07:48Z</time>
      </trkpt>
      <trkpt lat="45.1052" lon="2.68497">
        <ele>1536</ele>
        <time>2020-07-17T20:08:05Z</time>
      </trkpt>
      <trkpt lat="45.10502" lon="2.68541">
        <ele>1535</ele>
        <time>2020-07-17T20:08:53Z</time>
      </trkpt>
      <trkpt lat="45.10489" lon="2.6859">
        <ele>1530</ele>
        <time>2020-07-17T20:09:42Z</time>
      </trkpt>
      <trkpt lat="45.10493" lon="2.68598">
        <ele>1524</ele>
        <time>2020-07-17T20:09:51Z</time>
      </trkpt>
      <trkpt lat="45.10486" lon="2.68632">
        <ele>1528</ele>
        <time>2020-07-17T20:10:25Z</time>
      </trkpt>
      <trkpt lat="45.10484" lon="2.68654">
        <ele>1528</ele>
        <time>2020-07-17T20:10:46Z</time>
      </trkpt>
      <trkpt lat="45.10476" lon="2.68663">
        <ele>1537</ele>
        <time>2020-07-17T20:10:59Z</time>
      </trkpt>
      <trkpt lat="45.10474" lon="2.68678">
        <ele>1541</ele>
        <time>2020-07-17T20:11:14Z</time>
      </trkpt>
      <trkpt lat="45.10481" lon="2.68702">
        <ele>1534</ele>
        <time>2020-07-17T20:11:38Z</time>
      </trkpt>
      <trkpt lat="45.10474" lon="2.68711">
        <ele>1545</ele>
        <time>2020-07-17T20:11:51Z</time>
      </trkpt>
      <trkpt lat="45.10467" lon="2.68742">
        <ele>1559</ele>
        <time>2020-07-17T20:12:21Z</time>
      </trkpt>
      <trkpt lat="45.1047" lon="2.6875">
        <ele>1556</ele>
        <time>2020-07-17T20:12:30Z</time>
      </trkpt>
      <trkpt lat="45.10463" lon="2.68793">
        <ele>1572</ele>
        <time>2020-07-17T20:13:11Z</time>
      </trkpt>
      <trkpt lat="45.10472" lon="2.68794">
        <ele>1559</ele>
        <time>2020-07-17T20:13:23Z</time>
      </trkpt>
      <trkpt lat="45.10468" lon="2.68802">
        <ele>1566</ele>
        <time>2020-07-17T20:13:33Z</time>
      </trkpt>
      <trkpt lat="45.1047" lon="2.68819">
        <ele>1565</ele>
        <time>2020-07-17T20:13:49Z</time>
      </trkpt>
      <trkpt lat="45.10469" lon="2.68829">
        <ele>1568</ele>
        <time>2020-07-17T20:13:58Z</time>
      </trkpt>
      <trkpt lat="45.10475" lon="2.68833">
        <ele>1560</ele>
        <time>2020-07-17T20:14:07Z</time>
      </trkpt>
      <trkpt lat="45.10475" lon="2.68861">
        <ele>1560</ele>
        <time>2020-07-17T20:14:34Z</time>
      </trkpt>
      <trkpt lat="45.1048" lon="2.6889">
        <ele>1555</ele>
        <time>2020-07-17T20:15:02Z</time>
      </trkpt>
      <trkpt lat="45.10487" lon="2.68893">
        <ele>1546</ele>
        <time>2020-07-17T20:15:12Z</time>
      </trkpt>
      <trkpt lat="45.10493" lon="2.68931">
        <ele>1544</ele>
        <time>2020-07-17T20:15:48Z</time>
      </trkpt>
      <trkpt lat="45.10516" lon="2.68994">
        <ele>1542</ele>
        <time>2020-07-17T20:16:55Z</time>
      </trkpt>
      <trkpt lat="45.10517" lon="2.69019">
        <ele>1545</ele>
        <time>2020-07-17T20:17:19Z</time>
      </trkpt>
      <trkpt lat="45.10526" lon="2.69031">
        <ele>1544</ele>
        <time>2020-07-17T20:17:35Z</time>
      </trkpt>
      <trkpt lat="45.1053" lon="2.69076">
        <ele>1547</ele>
        <time>2020-07-17T20:18:18Z</time>
      </trkpt>
      <trkpt lat="45.1054" lon="2.69121">
        <ele>1546</ele>
        <time>2020-07-17T20:19:02Z</time>
      </trkpt>
      <trkpt lat="45.1054" lon="2.69141">
        <ele>1547</ele>
        <time>2020-07-17T20:19:21Z</time>
      </trkpt>
      <trkpt lat="45.10523" lon="2.69169">
        <ele>1552</ele>
        <time>2020-07-17T20:19:56Z</time>
      </trkpt>
      <trkpt lat="45.10489" lon="2.69189">
        <ele>1561</ele>
        <time>2020-07-17T20:20:45Z</time>
      </trkpt>
      <trkpt lat="45.10449" lon="2.69269">
        <ele>1576</ele>
        <time>2020-07-17T20:22:17Z</time>
      </trkpt>
      <trkpt lat="45.1044" lon="2.69276">
        <ele>1581</ele>
        <time>2020-07-17T20:22:31Z</time>
      </trkpt>
      <trkpt lat="45.10433" lon="2.69309">
        <ele>1580</ele>
        <time>2020-07-17T20:23:04Z</time>
      </trkpt>
      <trkpt lat="45.10422" lon="2.69334">
        <ele>1581</ele>
        <time>2020-07-17T20:23:31Z</time>
      </trkpt>
      <trkpt lat="45.10416" lon="2.69341">
        <ele>1584</ele>
        <time>2020-07-17T20:23:42Z</time>
      </trkpt>
      <trkpt lat="45.10412" lon="2.69361">
        <ele>1586</ele>
        <time>2020-07-17T20:24:01Z</time>
      </trkpt>
      <trkpt lat="45.1041" lon="2.69383">
        <ele>1586</ele>
        <time>2020-07-17T20:24:22Z</time>
      </trkpt>
      <trkpt lat="45.10405" lon="2.6939">
        <ele>1589</ele>
        <time>2020-07-17T20:24:31Z</time>
      </trkpt>
      <trkpt lat="45.10402" lon="2.69395">
        <ele>1591</ele>
        <time>2020-07-17T20:24:38Z</time>
      </trkpt>
      <trkpt lat="45.10396" lon="2.6943">
        <ele>1596</ele>
        <time>2020-07-17T20:25:12Z</time>
      </trkpt>
      <trkpt lat="45.10395" lon="2.69442">
        <ele>1598</ele>
        <time>2020-07-17T20:25:23Z</time>
      </trkpt>
      <trkpt lat="45.10397" lon="2.69447">
        <ele>1597</ele>
        <time>2020-07-17T20:25:28Z</time>
      </trkpt>
      <trkpt lat="45.10397" lon="2.69459">
        <ele>1598</ele>
        <time>2020-07-17T20:25:40Z</time>
      </trkpt>
      <trkpt lat="45.10393" lon="2.6948">
        <ele>1602</ele>
        <time>2020-07-17T20:26:00Z</time>
      </trkpt>
      <trkpt lat="45.10389" lon="2.69485">
        <ele>1604</ele>
        <time>2020-07-17T20:26:07Z</time>
      </trkpt>
      <trkpt lat="45.10391" lon="2.6951">
        <ele>1605</ele>
        <time>2020-07-17T20:26:31Z</time>
      </trkpt>
      <trkpt lat="45.1039" lon="2.69512">
        <ele>1606</ele>
        <time>2020-07-17T20:26:33Z</time>
      </trkpt>
      <trkpt lat="45.10387" lon="2.69511">
        <ele>1607</ele>
        <time>2020-07-17T20:26:37Z</time>
      </trkpt>
      <trkpt lat="45.1038" lon="2.69495">
        <ele>1609</ele>
        <time>2020-07-17T20:26:55Z</time>
      </trkpt>
      <trkpt lat="45.10377" lon="2.69493">
        <ele>1611</ele>
        <time>2020-07-17T20:27:00Z</time>
      </trkpt>
      <trkpt lat="45.10374" lon="2.69493">
        <ele>1612</ele>
        <time>2020-07-17T20:27:04Z</time>
      </trkpt>
      <trkpt lat="45.10365" lon="2.69512">
        <ele>1617</ele>
        <time>2020-07-17T20:27:25Z</time>
      </trkpt>
      <trkpt lat="45.10356" lon="2.69523">
        <ele>1620</ele>
        <time>2020-07-17T20:27:41Z</time>
      </trkpt>
      <trkpt lat="45.10347" lon="2.6954">
        <ele>1623</ele>
        <time>2020-07-17T20:28:01Z</time>
      </trkpt>
      <trkpt lat="45.10356" lon="2.69523">
        <ele>1620</ele>
        <time>2020-07-17T20:28:21Z</time>
      </trkpt>
      <trkpt lat="45.10365" lon="2.69512">
        <ele>1617</ele>
        <time>2020-07-17T20:28:37Z</time>
      </trkpt>
      <trkpt lat="45.10374" lon="2.69493">
        <ele>1612</ele>
        <time>2020-07-17T20:28:58Z</time>
      </trkpt>
      <trkpt lat="45.10377" lon="2.69493">
        <ele>1611</ele>
        <time>2020-07-17T20:29:02Z</time>
      </trkpt>
      <trkpt lat="45.1038" lon="2.69495">
        <ele>1609</ele>
        <time>2020-07-17T20:29:07Z</time>
      </trkpt>
      <trkpt lat="45.10387" lon="2.69511">
        <ele>1607</ele>
        <time>2020-07-17T20:29:25Z</time>
      </trkpt>
      <trkpt lat="45.1039" lon="2.69512">
        <ele>1606</ele>
        <time>2020-07-17T20:29:29Z</time>
      </trkpt>
      <trkpt lat="45.10391" lon="2.6951">
        <ele>1605</ele>
        <time>2020-07-17T20:29:31Z</time>
      </trkpt>
      <trkpt lat="45.10389" lon="2.69485">
        <ele>1604</ele>
        <time>2020-07-17T20:29:55Z</time>
      </trkpt>
      <trkpt lat="45.10393" lon="2.6948">
        <ele>1602</ele>
        <time>2020-07-17T20:30:02Z</time>
      </trkpt>
      <trkpt lat="45.10397" lon="2.69459">
        <ele>1598</ele>
        <time>2020-07-17T20:30:22Z</time>
      </trkpt>
      <trkpt lat="45.10397" lon="2.69447">
        <ele>1597</ele>
        <time>2020-07-17T20:30:34Z</time>
      </trkpt>
      <trkpt lat="45.10395" lon="2.69442">
        <ele>1598</ele>
        <time>2020-07-17T20:30:39Z</time>
      </trkpt>
      <trkpt lat="45.10396" lon="2.6943">
        <ele>1596</ele>
        <time>2020-07-17T20:30:50Z</time>
      </trkpt>
      <trkpt lat="45.10402" lon="2.69395">
        <ele>1591</ele>
        <time>2020-07-17T20:31:24Z</time>
      </trkpt>
      <trkpt lat="45.10405" lon="2.6939">
        <ele>1589</ele>
        <time>2020-07-17T20:31:31Z</time>
      </trkpt>
      <trkpt lat="45.1041" lon="2.69383">
        <ele>1586</ele>
        <time>2020-07-17T20:31:40Z</time>
      </trkpt>
      <trkpt lat="45.10409" lon="2.6941">
        <ele>1586</ele>
        <time>2020-07-17T20:32:05Z</time>
      </trkpt>
      <trkpt lat="45.10416" lon="2.69474">
        <ele>1589</ele>
        <time>2020-07-17T20:33:06Z</time>
      </trkpt>
      <trkpt lat="45.10419" lon="2.69528">
        <ele>1596</ele>
        <time>2020-07-17T20:33:57Z</time>
      </trkpt>
      <trkpt lat="45.10427" lon="2.69539">
        <ele>1594</ele>
        <time>2020-07-17T20:34:12Z</time>
      </trkpt>
      <trkpt lat="45.10426" lon="2.69584">
        <ele>1602</ele>
        <time>2020-07-17T20:34:55Z</time>
      </trkpt>
      <trkpt lat="45.10447" lon="2.69653">
        <ele>1604</ele>
        <time>2020-07-17T20:36:05Z</time>
      </trkpt>
      <trkpt lat="45.10449" lon="2.69675">
        <ele>1606</ele>
        <time>2020-07-17T20:36:26Z</time>
      </trkpt>
      <trkpt lat="45.10471" lon="2.69724">
        <ele>1602</ele>
        <time>2020-07-17T20:37:21Z</time>
      </trkpt>
      <trkpt lat="45.1049" lon="2.69815">
        <ele>1607</ele>
        <time>2020-07-17T20:38:50Z</time>
      </trkpt>
      <trkpt lat="45.10493" lon="2.69845">
        <ele>1611</ele>
        <time>2020-07-17T20:39:19Z</time>
      </trkpt>
      <trkpt lat="45.1051" lon="2.69867">
        <ele>1611</ele>
        <time>2020-07-17T20:39:50Z</time>
      </trkpt>
      <trkpt lat="45.10556" lon="2.69966">
        <ele>1614</ele>
        <time>2020-07-17T20:41:41Z</time>
      </trkpt>
      <trkpt lat="45.10559" lon="2.70014">
        <ele>1620</ele>
        <time>2020-07-17T20:42:27Z</time>
      </trkpt>
      <trkpt lat="45.10549" lon="2.70036">
        <ele>1621</ele>
        <time>2020-07-17T20:42:51Z</time>
      </trkpt>
      <trkpt lat="45.10539" lon="2.70035">
        <ele>1621</ele>
        <time>2020-07-17T20:43:05Z</time>
      </trkpt>
      <trkpt lat="45.10534" lon="2.70034">
        <ele>1621</ele>
        <time>2020-07-17T20:43:11Z</time>
      </trkpt>
      <trkpt lat="45.10535" lon="2.70039">
        <ele>1621</ele>
        <time>2020-07-17T20:43:16Z</time>
      </trkpt>
      <trkpt lat="45.10536" lon="2.70056">
        <ele>1620</ele>
        <time>2020-07-17T20:43:32Z</time>
      </trkpt>
      <trkpt lat="45.10546" lon="2.70089">
        <ele>1621</ele>
        <time>2020-07-17T20:44:06Z</time>
      </trkpt>
      <trkpt lat="45.10553" lon="2.70121">
        <ele>1624</ele>
        <time>2020-07-17T20:44:38Z</time>
      </trkpt>
      <trkpt lat="45.10551" lon="2.70152">
        <ele>1624</ele>
        <time>2020-07-17T20:45:07Z</time>
      </trkpt>
      <trkpt lat="45.10554" lon="2.70163">
        <ele>1626</ele>
        <time>2020-07-17T20:45:18Z</time>
      </trkpt>
      <trkpt lat="45.10554" lon="2.70198">
        <ele>1627</ele>
        <time>2020-07-17T20:45:51Z</time>
      </trkpt>
      <trkpt lat="45.10548" lon="2.70218">
        <ele>1624</ele>
        <time>2020-07-17T20:46:12Z</time>
      </trkpt>
      <trkpt lat="45.10548" lon="2.70257">
        <ele>1625</ele>
        <time>2020-07-17T20:46:48Z</time>
      </trkpt>
      <trkpt lat="45.1054" lon="2.70282">
        <ele>1618</ele>
        <time>2020-07-17T20:47:14Z</time>
      </trkpt>
      <trkpt lat="45.10537" lon="2.70319">
        <ele>1613</ele>
        <time>2020-07-17T20:47:49Z</time>
      </trkpt>
      <trkpt lat="45.10542" lon="2.70337">
        <ele>1614</ele>
        <time>2020-07-17T20:48:08Z</time>
      </trkpt>
      <trkpt lat="45.10553" lon="2.7036">
        <ele>1618</ele>
        <time>2020-07-17T20:48:34Z</time>
      </trkpt>
      <trkpt lat="45.10566" lon="2.70376">
        <ele>1623</ele>
        <time>2020-07-17T20:48:57Z</time>
      </trkpt>
      <trkpt lat="45.10581" lon="2.70417">
        <ele>1628</ele>
        <time>2020-07-17T20:49:40Z</time>
      </trkpt>
      <trkpt lat="45.10587" lon="2.70442">
        <ele>1627</ele>
        <time>2020-07-17T20:50:05Z</time>
      </trkpt>
      <trkpt lat="45.10585" lon="2.70456">
        <ele>1623</ele>
        <time>2020-07-17T20:50:19Z</time>
      </trkpt>
      <trkpt lat="45.10584" lon="2.70472">
        <ele>1620</ele>
        <time>2020-07-17T20:50:34Z</time>
      </trkpt>
      <trkpt lat="45.10588" lon="2.70507">
        <ele>1616</ele>
        <time>2020-07-17T20:51:07Z</time>
      </trkpt>
      <trkpt lat="45.10583" lon="2.70543">
        <ele>1606</ele>
        <time>2020-07-17T20:51:42Z</time>
      </trkpt>
      <trkpt lat="45.10586" lon="2.70579">
        <ele>1600</ele>
        <time>2020-07-17T20:52:16Z</time>
      </trkpt>
      <trkpt lat="45.10589" lon="2.70587">
        <ele>1600</ele>
        <time>2020-07-17T20:52:24Z</time>
      </trkpt>
      <trkpt lat="45.10596" lon="2.70593">
        <ele>1601</ele>
        <time>2020-07-17T20:52:35Z</time>
      </trkpt>
      <trkpt lat="45.10604" lon="2.70606">
        <ele>1600</ele>
        <time>2020-07-17T20:52:51Z</time>
      </trkpt>
      <trkpt lat="45.10609" lon="2.70625">
        <ele>1596</ele>
        <time>2020-07-17T20:53:11Z</time>
      </trkpt>
      <trkpt lat="45.10627" lon="2.70645">
        <ele>1597</ele>
        <time>2020-07-17T20:53:41Z</time>
      </trkpt>
      <trkpt lat="45.10636" lon="2.7065">
        <ele>1599</ele>
        <time>2020-07-17T20:53:54Z</time>
      </trkpt>
      <trkpt lat="45.1065" lon="2.70664">
        <ele>1600</ele>
        <time>2020-07-17T20:54:17Z</time>
      </trkpt>
      <trkpt lat="45.10657" lon="2.70676">
        <ele>1600</ele>
        <time>2020-07-17T20:54:31Z</time>
      </trkpt>
      <trkpt lat="45.10666" lon="2.70681">
        <ele>1602</ele>
        <time>2020-07-17T20:54:44Z</time>
      </trkpt>
      <trkpt lat="45.10674" lon="2.70697">
        <ele>1604</ele>
        <time>2020-07-17T20:55:03Z</time>
      </trkpt>
      <trkpt lat="45.10687" lon="2.70743">
        <ele>1600</ele>
        <time>2020-07-17T20:55:50Z</time>
      </trkpt>
      <trkpt lat="45.10694" lon="2.70796">
        <ele>1599</ele>
        <time>2020-07-17T20:56:40Z</time>
      </trkpt>
      <trkpt lat="45.10688" lon="2.70818">
        <ele>1593</ele>
        <time>2020-07-17T20:57:03Z</time>
      </trkpt>
      <trkpt lat="45.10693" lon="2.70833">
        <ele>1595</ele>
        <time>2020-07-17T20:57:18Z</time>
      </trkpt>
      <trkpt lat="45.10697" lon="2.70852">
        <ele>1598</ele>
        <time>2020-07-17T20:57:37Z</time>
      </trkpt>
      <trkpt lat="45.10697" lon="2.70859">
        <ele>1598</ele>
        <time>2020-07-17T20:57:43Z</time>
      </trkpt>
      <trkpt lat="45.10688" lon="2.70889">
        <ele>1593</ele>
        <time>2020-07-17T20:58:14Z</time>
      </trkpt>
      <trkpt lat="45.10668" lon="2.70931">
        <ele>1581</ele>
        <time>2020-07-17T20:59:02Z</time>
      </trkpt>
      <trkpt lat="45.10671" lon="2.70942">
        <ele>1582</ele>
        <time>2020-07-17T20:59:13Z</time>
      </trkpt>
      <trkpt lat="45.10676" lon="2.70946">
        <ele>1585</ele>
        <time>2020-07-17T20:59:21Z</time>
      </trkpt>
      <trkpt lat="45.10684" lon="2.70959">
        <ele>1590</ele>
        <time>2020-07-17T20:59:37Z</time>
      </trkpt>
      <trkpt lat="45.10687" lon="2.70984">
        <ele>1591</ele>
        <time>2020-07-17T21:00:01Z</time>
      </trkpt>
      <trkpt lat="45.10691" lon="2.70992">
        <ele>1593</ele>
        <time>2020-07-17T21:00:10Z</time>
      </trkpt>
      <trkpt lat="45.10688" lon="2.71008">
        <ele>1591</ele>
        <time>2020-07-17T21:00:26Z</time>
      </trkpt>
      <trkpt lat="45.10688" lon="2.71019">
        <ele>1593</ele>
        <time>2020-07-17T21:00:36Z</time>
      </trkpt>
      <trkpt lat="45.10675" lon="2.7106">
        <ele>1590</ele>
        <time>2020-07-17T21:01:18Z</time>
      </trkpt>
      <trkpt lat="45.10667" lon="2.71068">
        <ele>1587</ele>
        <time>2020-07-17T21:01:31Z</time>
      </trkpt>
      <trkpt lat="45.10655" lon="2.71077">
        <ele>1583</ele>
        <time>2020-07-17T21:01:49Z</time>
      </trkpt>
      <trkpt lat="45.10648" lon="2.71091">
        <ele>1583</ele>
        <time>2020-07-17T21:02:06Z</time>
      </trkpt>
      <trkpt lat="45.10635" lon="2.71103">
        <ele>1581</ele>
        <time>2020-07-17T21:02:26Z</time>
      </trkpt>
      <trkpt lat="45.10603" lon="2.71124">
        <ele>1572</ele>
        <time>2020-07-17T21:03:13Z</time>
      </trkpt>
      <trkpt lat="45.10601" lon="2.7113">
        <ele>1573</ele>
        <time>2020-07-17T21:03:20Z</time>
      </trkpt>
      <trkpt lat="45.10591" lon="2.71139">
        <ele>1571</ele>
        <time>2020-07-17T21:03:35Z</time>
      </trkpt>
      <trkpt lat="45.10588" lon="2.71146">
        <ele>1571</ele>
        <time>2020-07-17T21:03:43Z</time>
      </trkpt>
      <trkpt lat="45.10584" lon="2.71172">
        <ele>1576</ele>
        <time>2020-07-17T21:04:08Z</time>
      </trkpt>
      <trkpt lat="45.10578" lon="2.71184">
        <ele>1575</ele>
        <time>2020-07-17T21:04:22Z</time>
      </trkpt>
      <trkpt lat="45.10572" lon="2.71187">
        <ele>1573</ele>
        <time>2020-07-17T21:04:31Z</time>
      </trkpt>
      <trkpt lat="45.10566" lon="2.71202">
        <ele>1572</ele>
        <time>2020-07-17T21:04:47Z</time>
      </trkpt>
      <trkpt lat="45.10547" lon="2.71212">
        <ele>1563</ele>
        <time>2020-07-17T21:05:14Z</time>
      </trkpt>
      <trkpt lat="45.10528" lon="2.7127">
        <ele>1564</ele>
        <time>2020-07-17T21:06:14Z</time>
      </trkpt>
      <trkpt lat="45.10507" lon="2.71296">
        <ele>1560</ele>
        <time>2020-07-17T21:06:51Z</time>
      </trkpt>
      <trkpt lat="45.105" lon="2.71308">
        <ele>1560</ele>
        <time>2020-07-17T21:07:06Z</time>
      </trkpt>
      <trkpt lat="45.10481" lon="2.7132">
        <ele>1554</ele>
        <time>2020-07-17T21:07:34Z</time>
      </trkpt>
      <trkpt lat="45.10443" lon="2.71331">
        <ele>1538</ele>
        <time>2020-07-17T21:08:25Z</time>
      </trkpt>
      <trkpt lat="45.1044" lon="2.71345">
        <ele>1538</ele>
        <time>2020-07-17T21:08:39Z</time>
      </trkpt>
      <trkpt lat="45.10435" lon="2.71356">
        <ele>1536</ele>
        <time>2020-07-17T21:08:52Z</time>
      </trkpt>
      <trkpt lat="45.10438" lon="2.71366">
        <ele>1539</ele>
        <time>2020-07-17T21:09:02Z</time>
      </trkpt>
      <trkpt lat="45.10434" lon="2.71375">
        <ele>1537</ele>
        <time>2020-07-17T21:09:12Z</time>
      </trkpt>
      <trkpt lat="45.10437" lon="2.71413">
        <ele>1541</ele>
        <time>2020-07-17T21:09:48Z</time>
      </trkpt>
      <trkpt lat="45.10441" lon="2.71442">
        <ele>1541</ele>
        <time>2020-07-17T21:10:16Z</time>
      </trkpt>
      <trkpt lat="45.10438" lon="2.71473">
        <ele>1538</ele>
        <time>2020-07-17T21:10:45Z</time>
      </trkpt>
      <trkpt lat="45.10429" lon="2.7151">
        <ele>1533</ele>
        <time>2020-07-17T21:11:22Z</time>
      </trkpt>
      <trkpt lat="45.10399" lon="2.71591">
        <ele>1523</ele>
        <time>2020-07-17T21:12:48Z</time>
      </trkpt>
      <trkpt lat="45.1039" lon="2.71604">
        <ele>1521</ele>
        <time>2020-07-17T21:13:05Z</time>
      </trkpt>
      <trkpt lat="45.10379" lon="2.71612">
        <ele>1520</ele>
        <time>2020-07-17T21:13:22Z</time>
      </trkpt>
      <trkpt lat="45.10367" lon="2.71616">
        <ele>1520</ele>
        <time>2020-07-17T21:13:38Z</time>
      </trkpt>
      <trkpt lat="45.10353" lon="2.71618">
        <ele>1521</ele>
        <time>2020-07-17T21:13:57Z</time>
      </trkpt>
      <trkpt lat="45.10317" lon="2.71636">
        <ele>1523</ele>
        <time>2020-07-17T21:14:48Z</time>
      </trkpt>
      <trkpt lat="45.10307" lon="2.71646">
        <ele>1525</ele>
        <time>2020-07-17T21:15:04Z</time>
      </trkpt>
      <trkpt lat="45.103" lon="2.71651">
        <ele>1527</ele>
        <time>2020-07-17T21:15:15Z</time>
      </trkpt>
      <trkpt lat="45.10239" lon="2.71637">
        <ele>1528</ele>
        <time>2020-07-17T21:16:37Z</time>
      </trkpt>
      <trkpt lat="45.10205" lon="2.71636">
        <ele>1527</ele>
        <time>2020-07-17T21:17:23Z</time>
      </trkpt>
      <trkpt lat="45.10188" lon="2.71631">
        <ele>1525</ele>
        <time>2020-07-17T21:17:46Z</time>
      </trkpt>
      <trkpt lat="45.10172" lon="2.71632">
        <ele>1525</ele>
        <time>2020-07-17T21:18:07Z</time>
      </trkpt>
      <trkpt lat="45.10141" lon="2.71641">
        <ele>1526</ele>
        <time>2020-07-17T21:18:49Z</time>
      </trkpt>
      <trkpt lat="45.10109" lon="2.71657">
        <ele>1531</ele>
        <time>2020-07-17T21:19:35Z</time>
      </trkpt>
      <trkpt lat="45.10091" lon="2.7167">
        <ele>1536</ele>
        <time>2020-07-17T21:20:02Z</time>
      </trkpt>
      <trkpt lat="45.10081" lon="2.71667">
        <ele>1534</ele>
        <time>2020-07-17T21:20:15Z</time>
      </trkpt>
      <trkpt lat="45.1007" lon="2.71668">
        <ele>1536</ele>
        <time>2020-07-17T21:20:30Z</time>
      </trkpt>
      <trkpt lat="45.10055" lon="2.71661">
        <ele>1534</ele>
        <time>2020-07-17T21:20:51Z</time>
      </trkpt>
      <trkpt lat="45.10033" lon="2.71659">
        <ele>1536</ele>
        <time>2020-07-17T21:21:20Z</time>
      </trkpt>
      <trkpt lat="45.09985" lon="2.71647">
        <ele>1533</ele>
        <time>2020-07-17T21:22:26Z</time>
      </trkpt>
      <trkpt lat="45.09904" lon="2.71656">
        <ele>1537</ele>
        <time>2020-07-17T21:24:14Z</time>
      </trkpt>
      <trkpt lat="45.09856" lon="2.71672">
        <ele>1542</ele>
        <time>2020-07-17T21:25:20Z</time>
      </trkpt>
      <trkpt lat="45.09836" lon="2.71683">
        <ele>1546</ele>
        <time>2020-07-17T21:25:48Z</time>
      </trkpt>
      <trkpt lat="45.09755" lon="2.71704">
        <ele>1546</ele>
        <time>2020-07-17T21:27:38Z</time>
      </trkpt>
      <trkpt lat="45.09724" lon="2.71718">
        <ele>1546</ele>
        <time>2020-07-17T21:28:22Z</time>
      </trkpt>
      <trkpt lat="45.09675" lon="2.71745">
        <ele>1546</ele>
        <time>2020-07-17T21:29:32Z</time>
      </trkpt>
      <trkpt lat="45.09633" lon="2.71758">
        <ele>1543</ele>
        <time>2020-07-17T21:30:29Z</time>
      </trkpt>
      <trkpt lat="45.09622" lon="2.71779">
        <ele>1543</ele>
        <time>2020-07-17T21:30:54Z</time>
      </trkpt>
      <trkpt lat="45.0959" lon="2.71806">
        <ele>1539</ele>
        <time>2020-07-17T21:31:44Z</time>
      </trkpt>
      <trkpt lat="45.09591" lon="2.71808">
        <ele>1539</ele>
        <time>2020-07-17T21:31:46Z</time>
      </trkpt>
      <trkpt lat="45.09591" lon="2.71813">
        <ele>1540</ele>
        <time>2020-07-17T21:31:51Z</time>
      </trkpt>
      <trkpt lat="45.09594" lon="2.71822">
        <ele>1541</ele>
        <time>2020-07-17T21:32:00Z</time>
      </trkpt>
      <trkpt lat="45.09603" lon="2.7184">
        <ele>1541</ele>
        <time>2020-07-17T21:32:21Z</time>
      </trkpt>
      <trkpt lat="45.09612" lon="2.71847">
        <ele>1540</ele>
        <time>2020-07-17T21:32:34Z</time>
      </trkpt>
      <trkpt lat="45.09619" lon="2.71856">
        <ele>1539</ele>
        <time>2020-07-17T21:32:47Z</time>
      </trkpt>
      <trkpt lat="45.09632" lon="2.71863">
        <ele>1539</ele>
        <time>2020-07-17T21:33:06Z</time>
      </trkpt>
      <trkpt lat="45.09643" lon="2.71875">
        <ele>1537</ele>
        <time>2020-07-17T21:33:24Z</time>
      </trkpt>
      <trkpt lat="45.09671" lon="2.71887">
        <ele>1538</ele>
        <time>2020-07-17T21:34:03Z</time>
      </trkpt>
      <trkpt lat="45.09672" lon="2.71894">
        <ele>1536</ele>
        <time>2020-07-17T21:34:10Z</time>
      </trkpt>
      <trkpt lat="45.09677" lon="2.71894">
        <ele>1537</ele>
        <time>2020-07-17T21:34:17Z</time>
      </trkpt>
      <trkpt lat="45.09683" lon="2.71899">
        <ele>1536</ele>
        <time>2020-07-17T21:34:26Z</time>
      </trkpt>
      <trkpt lat="45.09687" lon="2.71907">
        <ele>1534</ele>
        <time>2020-07-17T21:34:35Z</time>
      </trkpt>
      <trkpt lat="45.09694" lon="2.71914">
        <ele>1533</ele>
        <time>2020-07-17T21:34:47Z</time>
      </trkpt>
      <trkpt lat="45.09707" lon="2.71933">
        <ele>1528</ele>
        <time>2020-07-17T21:35:11Z</time>
      </trkpt>
      <trkpt lat="45.09711" lon="2.71934">
        <ele>1529</ele>
        <time>2020-07-17T21:35:17Z</time>
      </trkpt>
      <trkpt lat="45.09716" lon="2.71946">
        <ele>1525</ele>
        <time>2020-07-17T21:35:30Z</time>
      </trkpt>
      <trkpt lat="45.09736" lon="2.71954">
        <ele>1527</ele>
        <time>2020-07-17T21:35:58Z</time>
      </trkpt>
      <trkpt lat="45.09742" lon="2.71962">
        <ele>1526</ele>
        <time>2020-07-17T21:36:09Z</time>
      </trkpt>
      <trkpt lat="45.09748" lon="2.71968">
        <ele>1525</ele>
        <time>2020-07-17T21:36:19Z</time>
      </trkpt>
      <trkpt lat="45.09751" lon="2.71978">
        <ele>1523</ele>
        <time>2020-07-17T21:36:29Z</time>
      </trkpt>
      <trkpt lat="45.09754" lon="2.71979">
        <ele>1524</ele>
        <time>2020-07-17T21:36:33Z</time>
      </trkpt>
      <trkpt lat="45.09774" lon="2.72006">
        <ele>1526</ele>
        <time>2020-07-17T21:37:10Z</time>
      </trkpt>
      <trkpt lat="45.09754" lon="2.71979">
        <ele>1524</ele>
        <time>2020-07-17T21:37:47Z</time>
      </trkpt>
      <trkpt lat="45.09751" lon="2.71978">
        <ele>1523</ele>
        <time>2020-07-17T21:37:51Z</time>
      </trkpt>
      <trkpt lat="45.09748" lon="2.71968">
        <ele>1525</ele>
        <time>2020-07-17T21:38:01Z</time>
      </trkpt>
      <trkpt lat="45.0979" lon="2.71993">
        <ele>1535</ele>
        <time>2020-07-17T21:39:02Z</time>
      </trkpt>
      <trkpt lat="45.09795" lon="2.71992">
        <ele>1538</ele>
        <time>2020-07-17T21:39:09Z</time>
      </trkpt>
      <trkpt lat="45.098" lon="2.71996">
        <ele>1539</ele>
        <time>2020-07-17T21:39:16Z</time>
      </trkpt>
      <trkpt lat="45.09806" lon="2.72007">
        <ele>1540</ele>
        <time>2020-07-17T21:39:29Z</time>
      </trkpt>
      <trkpt lat="45.09808" lon="2.72038">
        <ele>1537</ele>
        <time>2020-07-17T21:39:59Z</time>
      </trkpt>
      <trkpt lat="45.09806" lon="2.72061">
        <ele>1532</ele>
        <time>2020-07-17T21:40:20Z</time>
      </trkpt>
      <trkpt lat="45.09807" lon="2.72074">
        <ele>1531</ele>
        <time>2020-07-17T21:40:33Z</time>
      </trkpt>
      <trkpt lat="45.09813" lon="2.72094">
        <ele>1532</ele>
        <time>2020-07-17T21:40:53Z</time>
      </trkpt>
      <trkpt lat="45.0982" lon="2.72105">
        <ele>1534</ele>
        <time>2020-07-17T21:41:07Z</time>
      </trkpt>
      <trkpt lat="45.09831" lon="2.72119">
        <ele>1539</ele>
        <time>2020-07-17T21:41:27Z</time>
      </trkpt>
      <trkpt lat="45.09842" lon="2.72144">
        <ele>1543</ele>
        <time>2020-07-17T21:41:55Z</time>
      </trkpt>
      <trkpt lat="45.09841" lon="2.72159">
        <ele>1541</ele>
        <time>2020-07-17T21:42:09Z</time>
      </trkpt>
      <trkpt lat="45.09844" lon="2.72177">
        <ele>1541</ele>
        <time>2020-07-17T21:42:26Z</time>
      </trkpt>
      <trkpt lat="45.09843" lon="2.72188">
        <ele>1539</ele>
        <time>2020-07-17T21:42:37Z</time>
      </trkpt>
      <trkpt lat="45.09841" lon="2.72189">
        <ele>1538</ele>
        <time>2020-07-17T21:42:40Z</time>
      </trkpt>
      <trkpt lat="45.09845" lon="2.72197">
        <ele>1540</ele>
        <time>2020-07-17T21:42:49Z</time>
      </trkpt>
      <trkpt lat="45.09847" lon="2.72219">
        <ele>1538</ele>
        <time>2020-07-17T21:43:10Z</time>
      </trkpt>
      <trkpt lat="45.09852" lon="2.72235">
        <ele>1539</ele>
        <time>2020-07-17T21:43:26Z</time>
      </trkpt>
      <trkpt lat="45.09866" lon="2.72255">
        <ele>1544</ele>
        <time>2020-07-17T21:43:53Z</time>
      </trkpt>
      <trkpt lat="45.0987" lon="2.72257">
        <ele>1546</ele>
        <time>2020-07-17T21:43:58Z</time>
      </trkpt>
      <trkpt lat="45.09876" lon="2.72268">
        <ele>1547</ele>
        <time>2020-07-17T21:44:11Z</time>
      </trkpt>
      <trkpt lat="45.09892" lon="2.72283">
        <ele>1552</ele>
        <time>2020-07-17T21:44:37Z</time>
      </trkpt>
      <trkpt lat="45.09894" lon="2.72291">
        <ele>1551</ele>
        <time>2020-07-17T21:44:45Z</time>
      </trkpt>
      <trkpt lat="45.09904" lon="2.72301">
        <ele>1554</ele>
        <time>2020-07-17T21:45:01Z</time>
      </trkpt>
      <trkpt lat="45.09916" lon="2.72346">
        <ele>1553</ele>
        <time>2020-07-17T21:45:47Z</time>
      </trkpt>
      <trkpt lat="45.09925" lon="2.72363">
        <ele>1557</ele>
        <time>2020-07-17T21:46:07Z</time>
      </trkpt>
      <trkpt lat="45.09931" lon="2.72386">
        <ele>1559</ele>
        <time>2020-07-17T21:46:30Z</time>
      </trkpt>
      <trkpt lat="45.09936" lon="2.72392">
        <ele>1562</ele>
        <time>2020-07-17T21:46:39Z</time>
      </trkpt>
      <trkpt lat="45.09939" lon="2.72417">
        <ele>1561</ele>
        <time>2020-07-17T21:47:02Z</time>
      </trkpt>
      <trkpt lat="45.09949" lon="2.72452">
        <ele>1564</ele>
        <time>2020-07-17T21:47:38Z</time>
      </trkpt>
      <trkpt lat="45.09956" lon="2.72468">
        <ele>1567</ele>
        <time>2020-07-17T21:47:56Z</time>
      </trkpt>
      <trkpt lat="45.09963" lon="2.72488">
        <ele>1570</ele>
        <time>2020-07-17T21:48:17Z</time>
      </trkpt>
      <trkpt lat="45.09974" lon="2.72508">
        <ele>1575</ele>
        <time>2020-07-17T21:48:41Z</time>
      </trkpt>
      <trkpt lat="45.09975" lon="2.72513">
        <ele>1575</ele>
        <time>2020-07-17T21:48:46Z</time>
      </trkpt>
      <trkpt lat="45.09983" lon="2.72528">
        <ele>1579</ele>
        <time>2020-07-17T21:49:03Z</time>
      </trkpt>
      <trkpt lat="45.09984" lon="2.72537">
        <ele>1579</ele>
        <time>2020-07-17T21:49:12Z</time>
      </trkpt>
      <trkpt lat="45.0999" lon="2.72541">
        <ele>1582</ele>
        <time>2020-07-17T21:49:21Z</time>
      </trkpt>
      <trkpt lat="45.09997" lon="2.72563">
        <ele>1584</ele>
        <time>2020-07-17T21:49:43Z</time>
      </trkpt>
      <trkpt lat="45.09997" lon="2.72573">
        <ele>1583</ele>
        <time>2020-07-17T21:49:53Z</time>
      </trkpt>
      <trkpt lat="45.10003" lon="2.72614">
        <ele>1590</ele>
        <time>2020-07-17T21:50:32Z</time>
      </trkpt>
      <trkpt lat="45.09997" lon="2.72626">
        <ele>1592</ele>
        <time>2020-07-17T21:50:46Z</time>
      </trkpt>
      <trkpt lat="45.09997" lon="2.72632">
        <ele>1593</ele>
        <time>2020-07-17T21:50:52Z</time>
      </trkpt>
      <trkpt lat="45.09991" lon="2.72649">
        <ele>1594</ele>
        <time>2020-07-17T21:51:10Z</time>
      </trkpt>
      <trkpt lat="45.09984" lon="2.72679">
        <ele>1599</ele>
        <time>2020-07-17T21:51:39Z</time>
      </trkpt>
      <trkpt lat="45.09986" lon="2.72684">
        <ele>1601</ele>
        <time>2020-07-17T21:51:45Z</time>
      </trkpt>
      <trkpt lat="45.09976" lon="2.727">
        <ele>1602</ele>
        <time>2020-07-17T21:52:05Z</time>
      </trkpt>
      <trkpt lat="45.09975" lon="2.72709">
        <ele>1605</ele>
        <time>2020-07-17T21:52:14Z</time>
      </trkpt>
      <trkpt lat="45.09956" lon="2.72733">
        <ele>1605</ele>
        <time>2020-07-17T21:52:48Z</time>
      </trkpt>
      <trkpt lat="45.09953" lon="2.72743">
        <ele>1607</ele>
        <time>2020-07-17T21:52:58Z</time>
      </trkpt>
      <trkpt lat="45.09954" lon="2.72748">
        <ele>1609</ele>
        <time>2020-07-17T21:53:03Z</time>
      </trkpt>
      <trkpt lat="45.09949" lon="2.7276">
        <ele>1608</ele>
        <time>2020-07-17T21:53:16Z</time>
      </trkpt>
      <trkpt lat="45.09938" lon="2.72771">
        <ele>1605</ele>
        <time>2020-07-17T21:53:34Z</time>
      </trkpt>
      <trkpt lat="45.09932" lon="2.72787">
        <ele>1604</ele>
        <time>2020-07-17T21:53:51Z</time>
      </trkpt>
      <trkpt lat="45.09937" lon="2.728">
        <ele>1606</ele>
        <time>2020-07-17T21:54:05Z</time>
      </trkpt>
      <trkpt lat="45.09961" lon="2.72793">
        <ele>1615</ele>
        <time>2020-07-17T21:54:37Z</time>
      </trkpt>
      <trkpt lat="45.09976" lon="2.72793">
        <ele>1621</ele>
        <time>2020-07-17T21:54:57Z</time>
      </trkpt>
      <trkpt lat="45.10003" lon="2.72806">
        <ele>1630</ele>
        <time>2020-07-17T21:55:36Z</time>
      </trkpt>
      <trkpt lat="45.10008" lon="2.72806">
        <ele>1629</ele>
        <time>2020-07-17T21:55:42Z</time>
      </trkpt>
      <trkpt lat="45.10013" lon="2.72804">
        <ele>1628</ele>
        <time>2020-07-17T21:55:49Z</time>
      </trkpt>
      <trkpt lat="45.10018" lon="2.72805">
        <ele>1628</ele>
        <time>2020-07-17T21:55:56Z</time>
      </trkpt>
      <trkpt lat="45.10027" lon="2.728">
        <ele>1626</ele>
        <time>2020-07-17T21:56:09Z</time>
      </trkpt>
      <trkpt lat="45.10039" lon="2.72798">
        <ele>1623</ele>
        <time>2020-07-17T21:56:25Z</time>
      </trkpt>
      <trkpt lat="45.10047" lon="2.72807">
        <ele>1624</ele>
        <time>2020-07-17T21:56:39Z</time>
      </trkpt>
      <trkpt lat="45.10046" lon="2.72818">
        <ele>1626</ele>
        <time>2020-07-17T21:56:49Z</time>
      </trkpt>
      <trkpt lat="45.10041" lon="2.7282">
        <ele>1627</ele>
        <time>2020-07-17T21:56:56Z</time>
      </trkpt>
      <trkpt lat="45.10046" lon="2.72818">
        <ele>1626</ele>
        <time>2020-07-17T21:57:03Z</time>
      </trkpt>
      <trkpt lat="45.10047" lon="2.72807">
        <ele>1624</ele>
        <time>2020-07-17T21:57:13Z</time>
      </trkpt>
      <trkpt lat="45.10039" lon="2.72798">
        <ele>1623</ele>
        <time>2020-07-17T21:57:27Z</time>
      </trkpt>
      <trkpt lat="45.10027" lon="2.728">
        <ele>1626</ele>
        <time>2020-07-17T21:57:43Z</time>
      </trkpt>
      <trkpt lat="45.10018" lon="2.72805">
        <ele>1628</ele>
        <time>2020-07-17T21:57:56Z</time>
      </trkpt>
      <trkpt lat="45.10013" lon="2.72804">
        <ele>1628</ele>
        <time>2020-07-17T21:58:03Z</time>
      </trkpt>
      <trkpt lat="45.10008" lon="2.72806">
        <ele>1629</ele>
        <time>2020-07-17T21:58:10Z</time>
      </trkpt>
      <trkpt lat="45.10003" lon="2.72806">
        <ele>1630</ele>
        <time>2020-07-17T21:58:16Z</time>
      </trkpt>
      <trkpt lat="45.09976" lon="2.72793">
        <ele>1621</ele>
        <time>2020-07-17T21:58:54Z</time>
      </trkpt>
      <trkpt lat="45.09961" lon="2.72793">
        <ele>1615</ele>
        <time>2020-07-17T21:59:14Z</time>
      </trkpt>
      <trkpt lat="45.09937" lon="2.728">
        <ele>1606</ele>
        <time>2020-07-17T21:59:47Z</time>
      </trkpt>
      <trkpt lat="45.09932" lon="2.72787">
        <ele>1604</ele>
        <time>2020-07-17T22:00:01Z</time>
      </trkpt>
      <trkpt lat="45.09938" lon="2.72771">
        <ele>1605</ele>
        <time>2020-07-17T22:00:18Z</time>
      </trkpt>
      <trkpt lat="45.09949" lon="2.7276">
        <ele>1608</ele>
        <time>2020-07-17T22:00:36Z</time>
      </trkpt>
      <trkpt lat="45.09954" lon="2.72748">
        <ele>1609</ele>
        <time>2020-07-17T22:00:49Z</time>
      </trkpt>
      <trkpt lat="45.09953" lon="2.72743">
        <ele>1607</ele>
        <time>2020-07-17T22:00:54Z</time>
      </trkpt>
      <trkpt lat="45.09956" lon="2.72733">
        <ele>1605</ele>
        <time>2020-07-17T22:01:04Z</time>
      </trkpt>
      <trkpt lat="45.09975" lon="2.72709">
        <ele>1605</ele>
        <time>2020-07-17T22:01:38Z</time>
      </trkpt>
      <trkpt lat="45.09976" lon="2.727">
        <ele>1602</ele>
        <time>2020-07-17T22:01:47Z</time>
      </trkpt>
      <trkpt lat="45.09986" lon="2.72684">
        <ele>1601</ele>
        <time>2020-07-17T22:02:07Z</time>
      </trkpt>
      <trkpt lat="45.09984" lon="2.72679">
        <ele>1599</ele>
        <time>2020-07-17T22:02:12Z</time>
      </trkpt>
      <trkpt lat="45.09991" lon="2.72649">
        <ele>1594</ele>
        <time>2020-07-17T22:02:42Z</time>
      </trkpt>
      <trkpt lat="45.09997" lon="2.72632">
        <ele>1593</ele>
        <time>2020-07-17T22:03:00Z</time>
      </trkpt>
      <trkpt lat="45.09997" lon="2.72626">
        <ele>1592</ele>
        <time>2020-07-17T22:03:06Z</time>
      </trkpt>
      <trkpt lat="45.10003" lon="2.72614">
        <ele>1590</ele>
        <time>2020-07-17T22:03:20Z</time>
      </trkpt>
      <trkpt lat="45.09997" lon="2.72573">
        <ele>1583</ele>
        <time>2020-07-17T22:03:59Z</time>
      </trkpt>
      <trkpt lat="45.09997" lon="2.72563">
        <ele>1584</ele>
        <time>2020-07-17T22:04:08Z</time>
      </trkpt>
      <trkpt lat="45.0999" lon="2.72541">
        <ele>1582</ele>
        <time>2020-07-17T22:04:31Z</time>
      </trkpt>
      <trkpt lat="45.09984" lon="2.72537">
        <ele>1579</ele>
        <time>2020-07-17T22:04:40Z</time>
      </trkpt>
      <trkpt lat="45.09983" lon="2.72528">
        <ele>1579</ele>
        <time>2020-07-17T22:04:49Z</time>
      </trkpt>
      <trkpt lat="45.09975" lon="2.72513">
        <ele>1575</ele>
        <time>2020-07-17T22:05:06Z</time>
      </trkpt>
      <trkpt lat="45.09974" lon="2.72508">
        <ele>1575</ele>
        <time>2020-07-17T22:05:11Z</time>
      </trkpt>
      <trkpt lat="45.09963" lon="2.72488">
        <ele>1570</ele>
        <time>2020-07-17T22:05:35Z</time>
      </trkpt>
      <trkpt lat="45.09956" lon="2.72468">
        <ele>1567</ele>
        <time>2020-07-17T22:05:56Z</time>
      </trkpt>
      <trkpt lat="45.09949" lon="2.72452">
        <ele>1564</ele>
        <time>2020-07-17T22:06:14Z</time>
      </trkpt>
      <trkpt lat="45.09939" lon="2.72417">
        <ele>1561</ele>
        <time>2020-07-17T22:06:49Z</time>
      </trkpt>
      <trkpt lat="45.09936" lon="2.72392">
        <ele>1562</ele>
        <time>2020-07-17T22:07:13Z</time>
      </trkpt>
      <trkpt lat="45.09931" lon="2.72386">
        <ele>1559</ele>
        <time>2020-07-17T22:07:22Z</time>
      </trkpt>
      <trkpt lat="45.09925" lon="2.72363">
        <ele>1557</ele>
        <time>2020-07-17T22:07:45Z</time>
      </trkpt>
      <trkpt lat="45.09916" lon="2.72346">
        <ele>1553</ele>
        <time>2020-07-17T22:08:05Z</time>
      </trkpt>
      <trkpt lat="45.09904" lon="2.72301">
        <ele>1554</ele>
        <time>2020-07-17T22:08:50Z</time>
      </trkpt>
      <trkpt lat="45.09894" lon="2.72291">
        <ele>1551</ele>
        <time>2020-07-17T22:09:07Z</time>
      </trkpt>
      <trkpt lat="45.09892" lon="2.72283">
        <ele>1552</ele>
        <time>2020-07-17T22:09:15Z</time>
      </trkpt>
      <trkpt lat="45.09876" lon="2.72268">
        <ele>1547</ele>
        <time>2020-07-17T22:09:40Z</time>
      </trkpt>
      <trkpt lat="45.0987" lon="2.72257">
        <ele>1546</ele>
        <time>2020-07-17T22:09:53Z</time>
      </trkpt>
      <trkpt lat="45.09866" lon="2.72255">
        <ele>1544</ele>
        <time>2020-07-17T22:09:59Z</time>
      </trkpt>
      <trkpt lat="45.09852" lon="2.72235">
        <ele>1539</ele>
        <time>2020-07-17T22:10:26Z</time>
      </trkpt>
      <trkpt lat="45.09847" lon="2.72219">
        <ele>1538</ele>
        <time>2020-07-17T22:10:42Z</time>
      </trkpt>
      <trkpt lat="45.09845" lon="2.72197">
        <ele>1540</ele>
        <time>2020-07-17T22:11:03Z</time>
      </trkpt>
      <trkpt lat="45.09841" lon="2.72189">
        <ele>1538</ele>
        <time>2020-07-17T22:11:12Z</time>
      </trkpt>
      <trkpt lat="45.09843" lon="2.72188">
        <ele>1539</ele>
        <time>2020-07-17T22:11:15Z</time>
      </trkpt>
      <trkpt lat="45.09844" lon="2.72177">
        <ele>1541</ele>
        <time>2020-07-17T22:11:26Z</time>
      </trkpt>
      <trkpt lat="45.09841" lon="2.72159">
        <ele>1541</ele>
        <time>2020-07-17T22:11:43Z</time>
      </trkpt>
      <trkpt lat="45.09842" lon="2.72144">
        <ele>1543</ele>
        <time>2020-07-17T22:11:57Z</time>
      </trkpt>
      <trkpt lat="45.09831" lon="2.72119">
        <ele>1539</ele>
        <time>2020-07-17T22:12:25Z</time>
      </trkpt>
      <trkpt lat="45.0982" lon="2.72105">
        <ele>1534</ele>
        <time>2020-07-17T22:12:45Z</time>
      </trkpt>
      <trkpt lat="45.09813" lon="2.72094">
        <ele>1532</ele>
        <time>2020-07-17T22:12:59Z</time>
      </trkpt>
      <trkpt lat="45.09807" lon="2.72074">
        <ele>1531</ele>
        <time>2020-07-17T22:13:19Z</time>
      </trkpt>
      <trkpt lat="45.09806" lon="2.72061">
        <ele>1532</ele>
        <time>2020-07-17T22:13:31Z</time>
      </trkpt>
      <trkpt lat="45.09808" lon="2.72038">
        <ele>1537</ele>
        <time>2020-07-17T22:13:53Z</time>
      </trkpt>
      <trkpt lat="45.09806" lon="2.72007">
        <ele>1540</ele>
        <time>2020-07-17T22:14:23Z</time>
      </trkpt>
      <trkpt lat="45.098" lon="2.71996">
        <ele>1539</ele>
        <time>2020-07-17T22:14:36Z</time>
      </trkpt>
      <trkpt lat="45.09795" lon="2.71992">
        <ele>1538</ele>
        <time>2020-07-17T22:14:43Z</time>
      </trkpt>
      <trkpt lat="45.0979" lon="2.71993">
        <ele>1535</ele>
        <time>2020-07-17T22:14:50Z</time>
      </trkpt>
      <trkpt lat="45.09748" lon="2.71968">
        <ele>1525</ele>
        <time>2020-07-17T22:15:51Z</time>
      </trkpt>
      <trkpt lat="45.09751" lon="2.71978">
        <ele>1523</ele>
        <time>2020-07-17T22:16:01Z</time>
      </trkpt>
      <trkpt lat="45.09754" lon="2.71979">
        <ele>1524</ele>
        <time>2020-07-17T22:16:05Z</time>
      </trkpt>
      <trkpt lat="45.09761" lon="2.71987">
        <ele>1525</ele>
        <time>2020-07-17T22:16:17Z</time>
      </trkpt>
      <trkpt lat="45.09777" lon="2.7201">
        <ele>1526</ele>
        <time>2020-07-17T22:16:48Z</time>
      </trkpt>
      <trkpt lat="45.0978" lon="2.72018">
        <ele>1526</ele>
        <time>2020-07-17T22:16:56Z</time>
      </trkpt>
      <trkpt lat="45.09779" lon="2.72037">
        <ele>1523</ele>
        <time>2020-07-17T22:17:14Z</time>
      </trkpt>
      <trkpt lat="45.09774" lon="2.72046">
        <ele>1519</ele>
        <time>2020-07-17T22:17:25Z</time>
      </trkpt>
      <trkpt lat="45.09769" lon="2.72051">
        <ele>1515</ele>
        <time>2020-07-17T22:17:33Z</time>
      </trkpt>
      <trkpt lat="45.09767" lon="2.72069">
        <ele>1511</ele>
        <time>2020-07-17T22:17:50Z</time>
      </trkpt>
      <trkpt lat="45.09769" lon="2.72051">
        <ele>1515</ele>
        <time>2020-07-17T22:18:07Z</time>
      </trkpt>
      <trkpt lat="45.09774" lon="2.72046">
        <ele>1519</ele>
        <time>2020-07-17T22:18:16Z</time>
      </trkpt>
      <trkpt lat="45.09779" lon="2.72037">
        <ele>1523</ele>
        <time>2020-07-17T22:18:26Z</time>
      </trkpt>
      <trkpt lat="45.0978" lon="2.72018">
        <ele>1526</ele>
        <time>2020-07-17T22:18:44Z</time>
      </trkpt>
      <trkpt lat="45.09777" lon="2.7201">
        <ele>1526</ele>
        <time>2020-07-17T22:18:53Z</time>
      </trkpt>
      <trkpt lat="45.09761" lon="2.71987">
        <ele>1525</ele>
        <time>2020-07-17T22:19:23Z</time>
      </trkpt>
      <trkpt lat="45.09754" lon="2.71979">
        <ele>1524</ele>
        <time>2020-07-17T22:19:35Z</time>
      </trkpt>
      <trkpt lat="45.09751" lon="2.71978">
        <ele>1523</ele>
        <time>2020-07-17T22:19:39Z</time>
      </trkpt>
      <trkpt lat="45.09748" lon="2.71968">
        <ele>1525</ele>
        <time>2020-07-17T22:19:50Z</time>
      </trkpt>
      <trkpt lat="45.09742" lon="2.71962">
        <ele>1526</ele>
        <time>2020-07-17T22:19:59Z</time>
      </trkpt>
      <trkpt lat="45.09736" lon="2.71954">
        <ele>1527</ele>
        <time>2020-07-17T22:20:10Z</time>
      </trkpt>
      <trkpt lat="45.09716" lon="2.71946">
        <ele>1525</ele>
        <time>2020-07-17T22:20:38Z</time>
      </trkpt>
      <trkpt lat="45.09711" lon="2.71934">
        <ele>1529</ele>
        <time>2020-07-17T22:20:51Z</time>
      </trkpt>
      <trkpt lat="45.09707" lon="2.71933">
        <ele>1528</ele>
        <time>2020-07-17T22:20:57Z</time>
      </trkpt>
      <trkpt lat="45.09694" lon="2.71914">
        <ele>1533</ele>
        <time>2020-07-17T22:21:22Z</time>
      </trkpt>
      <trkpt lat="45.09687" lon="2.71907">
        <ele>1534</ele>
        <time>2020-07-17T22:21:33Z</time>
      </trkpt>
      <trkpt lat="45.09683" lon="2.71899">
        <ele>1536</ele>
        <time>2020-07-17T22:21:42Z</time>
      </trkpt>
      <trkpt lat="45.09677" lon="2.71894">
        <ele>1537</ele>
        <time>2020-07-17T22:21:52Z</time>
      </trkpt>
      <trkpt lat="45.09672" lon="2.71894">
        <ele>1536</ele>
        <time>2020-07-17T22:21:58Z</time>
      </trkpt>
      <trkpt lat="45.09671" lon="2.71887">
        <ele>1538</ele>
        <time>2020-07-17T22:22:05Z</time>
      </trkpt>
      <trkpt lat="45.09643" lon="2.71875">
        <ele>1537</ele>
        <time>2020-07-17T22:22:44Z</time>
      </trkpt>
      <trkpt lat="45.09632" lon="2.71863">
        <ele>1539</ele>
        <time>2020-07-17T22:23:03Z</time>
      </trkpt>
      <trkpt lat="45.09619" lon="2.71856">
        <ele>1539</ele>
        <time>2020-07-17T22:23:21Z</time>
      </trkpt>
      <trkpt lat="45.09612" lon="2.71847">
        <ele>1540</ele>
        <time>2020-07-17T22:23:34Z</time>
      </trkpt>
      <trkpt lat="45.09603" lon="2.7184">
        <ele>1541</ele>
        <time>2020-07-17T22:23:47Z</time>
      </trkpt>
      <trkpt lat="45.09594" lon="2.71822">
        <ele>1541</ele>
        <time>2020-07-17T22:24:08Z</time>
      </trkpt>
      <trkpt lat="45.09591" lon="2.71813">
        <ele>1540</ele>
        <time>2020-07-17T22:24:18Z</time>
      </trkpt>
      <trkpt lat="45.09591" lon="2.71808">
        <ele>1539</ele>
        <time>2020-07-17T22:24:22Z</time>
      </trkpt>
      <trkpt lat="45.0959" lon="2.71806">
        <ele>1539</ele>
        <time>2020-07-17T22:24:25Z</time>
      </trkpt>
      <trkpt lat="45.09622" lon="2.71779">
        <ele>1543</ele>
        <time>2020-07-17T22:25:14Z</time>
      </trkpt>
      <trkpt lat="45.09633" lon="2.71758">
        <ele>1543</ele>
        <time>2020-07-17T22:25:39Z</time>
      </trkpt>
      <trkpt lat="45.09675" lon="2.71745">
        <ele>1546</ele>
        <time>2020-07-17T22:26:36Z</time>
      </trkpt>
      <trkpt lat="45.09724" lon="2.71718">
        <ele>1546</ele>
        <time>2020-07-17T22:27:46Z</time>
      </trkpt>
      <trkpt lat="45.09755" lon="2.71704">
        <ele>1546</ele>
        <time>2020-07-17T22:28:30Z</time>
      </trkpt>
      <trkpt lat="45.09836" lon="2.71683">
        <ele>1546</ele>
        <time>2020-07-17T22:30:20Z</time>
      </trkpt>
      <trkpt lat="45.09856" lon="2.71672">
        <ele>1542</ele>
        <time>2020-07-17T22:30:48Z</time>
      </trkpt>
      <trkpt lat="45.09904" lon="2.71656">
        <ele>1537</ele>
        <time>2020-07-17T22:31:54Z</time>
      </trkpt>
      <trkpt lat="45.09985" lon="2.71647">
        <ele>1533</ele>
        <time>2020-07-17T22:33:43Z</time>
      </trkpt>
      <trkpt lat="45.10033" lon="2.71659">
        <ele>1536</ele>
        <time>2020-07-17T22:34:48Z</time>
      </trkpt>
      <trkpt lat="45.10055" lon="2.71661">
        <ele>1534</ele>
        <time>2020-07-17T22:35:17Z</time>
      </trkpt>
      <trkpt lat="45.1007" lon="2.71668">
        <ele>1536</ele>
        <time>2020-07-17T22:35:38Z</time>
      </trkpt>
      <trkpt lat="45.10081" lon="2.71667">
        <ele>1534</ele>
        <time>2020-07-17T22:35:53Z</time>
      </trkpt>
      <trkpt lat="45.10091" lon="2.7167">
        <ele>1536</ele>
        <time>2020-07-17T22:36:06Z</time>
      </trkpt>
      <trkpt lat="45.10109" lon="2.71657">
        <ele>1531</ele>
        <time>2020-07-17T22:36:33Z</time>
      </trkpt>
      <trkpt lat="45.10141" lon="2.71641">
        <ele>1526</ele>
        <time>2020-07-17T22:37:19Z</time>
      </trkpt>
      <trkpt lat="45.10172" lon="2.71632">
        <ele>1525</ele>
        <time>2020-07-17T22:38:01Z</time>
      </trkpt>
      <trkpt lat="45.10188" lon="2.71631">
        <ele>1525</ele>
        <time>2020-07-17T22:38:22Z</time>
      </trkpt>
      <trkpt lat="45.10205" lon="2.71636">
        <ele>1527</ele>
        <time>2020-07-17T22:38:46Z</time>
      </trkpt>
      <trkpt lat="45.10239" lon="2.71637">
        <ele>1528</ele>
        <time>2020-07-17T22:39:31Z</time>
      </trkpt>
      <trkpt lat="45.103" lon="2.71651">
        <ele>1527</ele>
        <time>2020-07-17T22:40:53Z</time>
      </trkpt>
      <trkpt lat="45.10307" lon="2.71646">
        <ele>1525</ele>
        <time>2020-07-17T22:41:04Z</time>
      </trkpt>
      <trkpt lat="45.10317" lon="2.71636">
        <ele>1523</ele>
        <time>2020-07-17T22:41:20Z</time>
      </trkpt>
      <trkpt lat="45.10353" lon="2.71618">
        <ele>1521</ele>
        <time>2020-07-17T22:42:11Z</time>
      </trkpt>
      <trkpt lat="45.10367" lon="2.71616">
        <ele>1520</ele>
        <time>2020-07-17T22:42:30Z</time>
      </trkpt>
      <trkpt lat="45.10379" lon="2.71612">
        <ele>1520</ele>
        <time>2020-07-17T22:42:46Z</time>
      </trkpt>
      <trkpt lat="45.1039" lon="2.71604">
        <ele>1521</ele>
        <time>2020-07-17T22:43:03Z</time>
      </trkpt>
      <trkpt lat="45.10399" lon="2.71591">
        <ele>1523</ele>
        <time>2020-07-17T22:43:20Z</time>
      </trkpt>
      <trkpt lat="45.10429" lon="2.7151">
        <ele>1533</ele>
        <time>2020-07-17T22:44:46Z</time>
      </trkpt>
      <trkpt lat="45.10438" lon="2.71473">
        <ele>1538</ele>
        <time>2020-07-17T22:45:23Z</time>
      </trkpt>
      <trkpt lat="45.10441" lon="2.71442">
        <ele>1541</ele>
        <time>2020-07-17T22:45:52Z</time>
      </trkpt>
      <trkpt lat="45.10437" lon="2.71413">
        <ele>1541</ele>
        <time>2020-07-17T22:46:20Z</time>
      </trkpt>
      <trkpt lat="45.10434" lon="2.71375">
        <ele>1537</ele>
        <time>2020-07-17T22:46:56Z</time>
      </trkpt>
      <trkpt lat="45.10438" lon="2.71366">
        <ele>1539</ele>
        <time>2020-07-17T22:47:06Z</time>
      </trkpt>
      <trkpt lat="45.10435" lon="2.71356">
        <ele>1536</ele>
        <time>2020-07-17T22:47:17Z</time>
      </trkpt>
      <trkpt lat="45.1044" lon="2.71345">
        <ele>1538</ele>
        <time>2020-07-17T22:47:29Z</time>
      </trkpt>
      <trkpt lat="45.10443" lon="2.71331">
        <ele>1538</ele>
        <time>2020-07-17T22:47:43Z</time>
      </trkpt>
      <trkpt lat="45.10481" lon="2.7132">
        <ele>1554</ele>
        <time>2020-07-17T22:48:34Z</time>
      </trkpt>
      <trkpt lat="45.105" lon="2.71308">
        <ele>1560</ele>
        <time>2020-07-17T22:49:02Z</time>
      </trkpt>
      <trkpt lat="45.10507" lon="2.71296">
        <ele>1560</ele>
        <time>2020-07-17T22:49:17Z</time>
      </trkpt>
      <trkpt lat="45.10528" lon="2.7127">
        <ele>1564</ele>
        <time>2020-07-17T22:49:54Z</time>
      </trkpt>
      <trkpt lat="45.10547" lon="2.71212">
        <ele>1563</ele>
        <time>2020-07-17T22:50:54Z</time>
      </trkpt>
      <trkpt lat="45.10566" lon="2.71202">
        <ele>1572</ele>
        <time>2020-07-17T22:51:21Z</time>
      </trkpt>
      <trkpt lat="45.10572" lon="2.71187">
        <ele>1573</ele>
        <time>2020-07-17T22:51:38Z</time>
      </trkpt>
      <trkpt lat="45.10578" lon="2.71184">
        <ele>1575</ele>
        <time>2020-07-17T22:51:46Z</time>
      </trkpt>
      <trkpt lat="45.10584" lon="2.71172">
        <ele>1576</ele>
        <time>2020-07-17T22:52:00Z</time>
      </trkpt>
      <trkpt lat="45.10588" lon="2.71146">
        <ele>1571</ele>
        <time>2020-07-17T22:52:25Z</time>
      </trkpt>
      <trkpt lat="45.10591" lon="2.71139">
        <ele>1571</ele>
        <time>2020-07-17T22:52:33Z</time>
      </trkpt>
      <trkpt lat="45.10601" lon="2.7113">
        <ele>1573</ele>
        <time>2020-07-17T22:52:49Z</time>
      </trkpt>
      <trkpt lat="45.10603" lon="2.71124">
        <ele>1572</ele>
        <time>2020-07-17T22:52:55Z</time>
      </trkpt>
      <trkpt lat="45.10635" lon="2.71103">
        <ele>1581</ele>
        <time>2020-07-17T22:53:42Z</time>
      </trkpt>
      <trkpt lat="45.10648" lon="2.71091">
        <ele>1583</ele>
        <time>2020-07-17T22:54:03Z</time>
      </trkpt>
      <trkpt lat="45.10655" lon="2.71077">
        <ele>1583</ele>
        <time>2020-07-17T22:54:19Z</time>
      </trkpt>
      <trkpt lat="45.10667" lon="2.71068">
        <ele>1587</ele>
        <time>2020-07-17T22:54:37Z</time>
      </trkpt>
      <trkpt lat="45.10675" lon="2.7106">
        <ele>1590</ele>
        <time>2020-07-17T22:54:50Z</time>
      </trkpt>
      <trkpt lat="45.10688" lon="2.71019">
        <ele>1593</ele>
        <time>2020-07-17T22:55:32Z</time>
      </trkpt>
      <trkpt lat="45.10688" lon="2.71008">
        <ele>1591</ele>
        <time>2020-07-17T22:55:43Z</time>
      </trkpt>
      <trkpt lat="45.10691" lon="2.70992">
        <ele>1593</ele>
        <time>2020-07-17T22:55:58Z</time>
      </trkpt>
      <trkpt lat="45.10687" lon="2.70984">
        <ele>1591</ele>
        <time>2020-07-17T22:56:07Z</time>
      </trkpt>
      <trkpt lat="45.10684" lon="2.70959">
        <ele>1590</ele>
        <time>2020-07-17T22:56:31Z</time>
      </trkpt>
      <trkpt lat="45.10676" lon="2.70946">
        <ele>1585</ele>
        <time>2020-07-17T22:56:48Z</time>
      </trkpt>
      <trkpt lat="45.10671" lon="2.70942">
        <ele>1582</ele>
        <time>2020-07-17T22:56:55Z</time>
      </trkpt>
      <trkpt lat="45.10668" lon="2.70931">
        <ele>1581</ele>
        <time>2020-07-17T22:57:06Z</time>
      </trkpt>
      <trkpt lat="45.10688" lon="2.70889">
        <ele>1593</ele>
        <time>2020-07-17T22:57:54Z</time>
      </trkpt>
      <trkpt lat="45.10697" lon="2.70859">
        <ele>1598</ele>
        <time>2020-07-17T22:58:25Z</time>
      </trkpt>
      <trkpt lat="45.10697" lon="2.70852">
        <ele>1598</ele>
        <time>2020-07-17T22:58:31Z</time>
      </trkpt>
      <trkpt lat="45.10693" lon="2.70833">
        <ele>1595</ele>
        <time>2020-07-17T22:58:50Z</time>
      </trkpt>
      <trkpt lat="45.10688" lon="2.70818">
        <ele>1593</ele>
        <time>2020-07-17T22:59:06Z</time>
      </trkpt>
      <trkpt lat="45.10694" lon="2.70796">
        <ele>1599</ele>
        <time>2020-07-17T22:59:28Z</time>
      </trkpt>
      <trkpt lat="45.10687" lon="2.70743">
        <ele>1600</ele>
        <time>2020-07-17T23:00:19Z</time>
      </trkpt>
      <trkpt lat="45.10674" lon="2.70697">
        <ele>1604</ele>
        <time>2020-07-17T23:01:05Z</time>
      </trkpt>
      <trkpt lat="45.10666" lon="2.70681">
        <ele>1602</ele>
        <time>2020-07-17T23:01:24Z</time>
      </trkpt>
      <trkpt lat="45.10657" lon="2.70676">
        <ele>1600</ele>
        <time>2020-07-17T23:01:37Z</time>
      </trkpt>
      <trkpt lat="45.1065" lon="2.70664">
        <ele>1600</ele>
        <time>2020-07-17T23:01:51Z</time>
      </trkpt>
      <trkpt lat="45.10636" lon="2.7065">
        <ele>1599</ele>
        <time>2020-07-17T23:02:14Z</time>
      </trkpt>
      <trkpt lat="45.10627" lon="2.70645">
        <ele>1597</ele>
        <time>2020-07-17T23:02:27Z</time>
      </trkpt>
      <trkpt lat="45.10609" lon="2.70625">
        <ele>1596</ele>
        <time>2020-07-17T23:02:58Z</time>
      </trkpt>
      <trkpt lat="45.10604" lon="2.70606">
        <ele>1600</ele>
        <time>2020-07-17T23:03:17Z</time>
      </trkpt>
      <trkpt lat="45.10596" lon="2.70593">
        <ele>1601</ele>
        <time>2020-07-17T23:03:33Z</time>
      </trkpt>
      <trkpt lat="45.10589" lon="2.70587">
        <ele>1600</ele>
        <time>2020-07-17T23:03:44Z</time>
      </trkpt>
      <trkpt lat="45.10586" lon="2.70579">
        <ele>1600</ele>
        <time>2020-07-17T23:03:52Z</time>
      </trkpt>
      <trkpt lat="45.10583" lon="2.70543">
        <ele>1606</ele>
        <time>2020-07-17T23:04:27Z</time>
      </trkpt>
      <trkpt lat="45.10588" lon="2.70507">
        <ele>1616</ele>
        <time>2020-07-17T23:05:01Z</time>
      </trkpt>
      <trkpt lat="45.10584" lon="2.70472">
        <ele>1620</ele>
        <time>2020-07-17T23:05:34Z</time>
      </trkpt>
      <trkpt lat="45.10585" lon="2.70456">
        <ele>1623</ele>
        <time>2020-07-17T23:05:50Z</time>
      </trkpt>
      <trkpt lat="45.10587" lon="2.70442">
        <ele>1627</ele>
        <time>2020-07-17T23:06:03Z</time>
      </trkpt>
      <trkpt lat="45.10581" lon="2.70417">
        <ele>1628</ele>
        <time>2020-07-17T23:06:28Z</time>
      </trkpt>
      <trkpt lat="45.10566" lon="2.70376">
        <ele>1623</ele>
        <time>2020-07-17T23:07:11Z</time>
      </trkpt>
      <trkpt lat="45.10553" lon="2.7036">
        <ele>1618</ele>
        <time>2020-07-17T23:07:34Z</time>
      </trkpt>
      <trkpt lat="45.10542" lon="2.70337">
        <ele>1614</ele>
        <time>2020-07-17T23:08:01Z</time>
      </trkpt>
      <trkpt lat="45.10537" lon="2.70319">
        <ele>1613</ele>
        <time>2020-07-17T23:08:19Z</time>
      </trkpt>
      <trkpt lat="45.1054" lon="2.70282">
        <ele>1618</ele>
        <time>2020-07-17T23:08:54Z</time>
      </trkpt>
      <trkpt lat="45.10548" lon="2.70257">
        <ele>1625</ele>
        <time>2020-07-17T23:09:20Z</time>
      </trkpt>
      <trkpt lat="45.10548" lon="2.70218">
        <ele>1624</ele>
        <time>2020-07-17T23:09:56Z</time>
      </trkpt>
      <trkpt lat="45.10554" lon="2.70198">
        <ele>1627</ele>
        <time>2020-07-17T23:10:17Z</time>
      </trkpt>
      <trkpt lat="45.10554" lon="2.70163">
        <ele>1626</ele>
        <time>2020-07-17T23:10:50Z</time>
      </trkpt>
      <trkpt lat="45.10551" lon="2.70152">
        <ele>1624</ele>
        <time>2020-07-17T23:11:01Z</time>
      </trkpt>
      <trkpt lat="45.10553" lon="2.70121">
        <ele>1624</ele>
        <time>2020-07-17T23:11:30Z</time>
      </trkpt>
      <trkpt lat="45.10546" lon="2.70089">
        <ele>1621</ele>
        <time>2020-07-17T23:12:02Z</time>
      </trkpt>
      <trkpt lat="45.10536" lon="2.70056">
        <ele>1620</ele>
        <time>2020-07-17T23:12:36Z</time>
      </trkpt>
      <trkpt lat="45.10535" lon="2.70039">
        <ele>1621</ele>
        <time>2020-07-17T23:12:52Z</time>
      </trkpt>
      <trkpt lat="45.10534" lon="2.70034">
        <ele>1621</ele>
        <time>2020-07-17T23:12:57Z</time>
      </trkpt>
      <trkpt lat="45.10539" lon="2.70035">
        <ele>1621</ele>
        <time>2020-07-17T23:13:03Z</time>
      </trkpt>
      <trkpt lat="45.10549" lon="2.70036">
        <ele>1621</ele>
        <time>2020-07-17T23:13:17Z</time>
      </trkpt>
      <trkpt lat="45.10559" lon="2.70014">
        <ele>1620</ele>
        <time>2020-07-17T23:13:41Z</time>
      </trkpt>
      <trkpt lat="45.10556" lon="2.69966">
        <ele>1614</ele>
        <time>2020-07-17T23:14:27Z</time>
      </trkpt>
      <trkpt lat="45.1051" lon="2.69867">
        <ele>1611</ele>
        <time>2020-07-17T23:16:18Z</time>
      </trkpt>
      <trkpt lat="45.10493" lon="2.69845">
        <ele>1611</ele>
        <time>2020-07-17T23:16:49Z</time>
      </trkpt>
      <trkpt lat="45.1049" lon="2.69815">
        <ele>1607</ele>
        <time>2020-07-17T23:17:18Z</time>
      </trkpt>
      <trkpt lat="45.10471" lon="2.69724">
        <ele>1602</ele>
        <time>2020-07-17T23:18:47Z</time>
      </trkpt>
      <trkpt lat="45.10449" lon="2.69675">
        <ele>1606</ele>
        <time>2020-07-17T23:19:42Z</time>
      </trkpt>
      <trkpt lat="45.10447" lon="2.69653">
        <ele>1604</ele>
        <time>2020-07-17T23:20:03Z</time>
      </trkpt>
      <trkpt lat="45.10426" lon="2.69584">
        <ele>1602</ele>
        <time>2020-07-17T23:21:13Z</time>
      </trkpt>
      <trkpt lat="45.10427" lon="2.69539">
        <ele>1594</ele>
        <time>2020-07-17T23:21:56Z</time>
      </trkpt>
      <trkpt lat="45.10419" lon="2.69528">
        <ele>1596</ele>
        <time>2020-07-17T23:22:11Z</time>
      </trkpt>
      <trkpt lat="45.10416" lon="2.69474">
        <ele>1589</ele>
        <time>2020-07-17T23:23:02Z</time>
      </trkpt>
      <trkpt lat="45.10409" lon="2.6941">
        <ele>1586</ele>
        <time>2020-07-17T23:24:03Z</time>
      </trkpt>
      <trkpt lat="45.1041" lon="2.69383">
        <ele>1586</ele>
        <time>2020-07-17T23:24:28Z</time>
      </trkpt>
      <trkpt lat="45.10412" lon="2.69361">
        <ele>1586</ele>
        <time>2020-07-17T23:24:49Z</time>
      </trkpt>
      <trkpt lat="45.10416" lon="2.69341">
        <ele>1584</ele>
        <time>2020-07-17T23:25:09Z</time>
      </trkpt>
      <trkpt lat="45.10422" lon="2.69334">
        <ele>1581</ele>
        <time>2020-07-17T23:25:19Z</time>
      </trkpt>
      <trkpt lat="45.10433" lon="2.69309">
        <ele>1580</ele>
        <time>2020-07-17T23:25:47Z</time>
      </trkpt>
      <trkpt lat="45.1044" lon="2.69276">
        <ele>1581</ele>
        <time>2020-07-17T23:26:19Z</time>
      </trkpt>
      <trkpt lat="45.10449" lon="2.69269">
        <ele>1576</ele>
        <time>2020-07-17T23:26:33Z</time>
      </trkpt>
      <trkpt lat="45.10489" lon="2.69189">
        <ele>1561</ele>
        <time>2020-07-17T23:28:05Z</time>
      </trkpt>
      <trkpt lat="45.10523" lon="2.69169">
        <ele>1552</ele>
        <time>2020-07-17T23:28:54Z</time>
      </trkpt>
      <trkpt lat="45.1054" lon="2.69141">
        <ele>1547</ele>
        <time>2020-07-17T23:29:29Z</time>
      </trkpt>
      <trkpt lat="45.1054" lon="2.69121">
        <ele>1546</ele>
        <time>2020-07-17T23:29:48Z</time>
      </trkpt>
      <trkpt lat="45.1053" lon="2.69076">
        <ele>1547</ele>
        <time>2020-07-17T23:30:33Z</time>
      </trkpt>
      <trkpt lat="45.10526" lon="2.69031">
        <ele>1544</ele>
        <time>2020-07-17T23:31:15Z</time>
      </trkpt>
      <trkpt lat="45.10517" lon="2.69019">
        <ele>1545</ele>
        <time>2020-07-17T23:31:32Z</time>
      </trkpt>
      <trkpt lat="45.10516" lon="2.68994">
        <ele>1542</ele>
        <time>2020-07-17T23:31:55Z</time>
      </trkpt>
      <trkpt lat="45.10493" lon="2.68931">
        <ele>1544</ele>
        <time>2020-07-17T23:33:02Z</time>
      </trkpt>
      <trkpt lat="45.10487" lon="2.68893">
        <ele>1546</ele>
        <time>2020-07-17T23:33:39Z</time>
      </trkpt>
      <trkpt lat="45.1048" lon="2.6889">
        <ele>1555</ele>
        <time>2020-07-17T23:33:49Z</time>
      </trkpt>
      <trkpt lat="45.10475" lon="2.68861">
        <ele>1560</ele>
        <time>2020-07-17T23:34:17Z</time>
      </trkpt>
      <trkpt lat="45.10475" lon="2.68833">
        <ele>1560</ele>
        <time>2020-07-17T23:34:43Z</time>
      </trkpt>
      <trkpt lat="45.10469" lon="2.68829">
        <ele>1568</ele>
        <time>2020-07-17T23:34:52Z</time>
      </trkpt>
      <trkpt lat="45.1047" lon="2.68819">
        <ele>1565</ele>
        <time>2020-07-17T23:35:01Z</time>
      </trkpt>
      <trkpt lat="45.10468" lon="2.68802">
        <ele>1566</ele>
        <time>2020-07-17T23:35:18Z</time>
      </trkpt>
      <trkpt lat="45.10472" lon="2.68794">
        <ele>1559</ele>
        <time>2020-07-17T23:35:27Z</time>
      </trkpt>
      <trkpt lat="45.10463" lon="2.68793">
        <ele>1572</ele>
        <time>2020-07-17T23:35:39Z</time>
      </trkpt>
      <trkpt lat="45.1047" lon="2.6875">
        <ele>1556</ele>
        <time>2020-07-17T23:36:20Z</time>
      </trkpt>
      <trkpt lat="45.10467" lon="2.68742">
        <ele>1559</ele>
        <time>2020-07-17T23:36:29Z</time>
      </trkpt>
      <trkpt lat="45.10474" lon="2.68711">
        <ele>1545</ele>
        <time>2020-07-17T23:37:00Z</time>
      </trkpt>
      <trkpt lat="45.10481" lon="2.68702">
        <ele>1534</ele>
        <time>2020-07-17T23:37:12Z</time>
      </trkpt>
      <trkpt lat="45.10474" lon="2.68678">
        <ele>1541</ele>
        <time>2020-07-17T23:37:37Z</time>
      </trkpt>
      <trkpt lat="45.10476" lon="2.68663">
        <ele>1537</ele>
        <time>2020-07-17T23:37:51Z</time>
      </trkpt>
      <trkpt lat="45.10484" lon="2.68654">
        <ele>1528</ele>
        <time>2020-07-17T23:38:05Z</time>
      </trkpt>
      <trkpt lat="45.10486" lon="2.68632">
        <ele>1528</ele>
        <time>2020-07-17T23:38:26Z</time>
      </trkpt>
      <trkpt lat="45.10493" lon="2.68598">
        <ele>1524</ele>
        <time>2020-07-17T23:38:59Z</time>
      </trkpt>
      <trkpt lat="45.10489" lon="2.6859">
        <ele>1530</ele>
        <time>2020-07-17T23:39:08Z</time>
      </trkpt>
      <trkpt lat="45.10502" lon="2.68541">
        <ele>1535</ele>
        <time>2020-07-17T23:39:58Z</time>
      </trkpt>
      <trkpt lat="45.1052" lon="2.68497">
        <ele>1536</ele>
        <time>2020-07-17T23:40:45Z</time>
      </trkpt>
      <trkpt lat="45.10529" lon="2.68484">
        <ele>1533</ele>
        <time>2020-07-17T23:41:03Z</time>
      </trkpt>
      <trkpt lat="45.10528" lon="2.68474">
        <ele>1538</ele>
        <time>2020-07-17T23:41:12Z</time>
      </trkpt>
      <trkpt lat="45.10532" lon="2.68466">
        <ele>1537</ele>
        <time>2020-07-17T23:41:21Z</time>
      </trkpt>
      <trkpt lat="45.10561" lon="2.68434">
        <ele>1527</ele>
        <time>2020-07-17T23:42:10Z</time>
      </trkpt>
      <trkpt lat="45.10575" lon="2.68402">
        <ele>1530</ele>
        <time>2020-07-17T23:42:46Z</time>
      </trkpt>
      <trkpt lat="45.10581" lon="2.68404">
        <ele>1525</ele>
        <time>2020-07-17T23:42:54Z</time>
      </trkpt>
      <trkpt lat="45.10584" lon="2.68398">
        <ele>1525</ele>
        <time>2020-07-17T23:43:01Z</time>
      </trkpt>
      <trkpt lat="45.10584" lon="2.68384">
        <ele>1530</ele>
        <time>2020-07-17T23:43:14Z</time>
      </trkpt>
      <trkpt lat="45.10588" lon="2.68372">
        <ele>1532</ele>
        <time>2020-07-17T23:43:27Z</time>
      </trkpt>
      <trkpt lat="45.10596" lon="2.6836">
        <ele>1532</ele>
        <time>2020-07-17T23:43:42Z</time>
      </trkpt>
      <trkpt lat="45.1061" lon="2.68348">
        <ele>1529</ele>
        <time>2020-07-17T23:44:04Z</time>
      </trkpt>
      <trkpt lat="45.10617" lon="2.68348">
        <ele>1526</ele>
        <time>2020-07-17T23:44:13Z</time>
      </trkpt>
      <trkpt lat="45.10626" lon="2.6832">
        <ele>1532</ele>
        <time>2020-07-17T23:44:42Z</time>
      </trkpt>
      <trkpt lat="45.10635" lon="2.68307">
        <ele>1531</ele>
        <time>2020-07-17T23:45:00Z</time>
      </trkpt>
      <trkpt lat="45.10646" lon="2.683">
        <ele>1528</ele>
        <time>2020-07-17T23:45:16Z</time>
      </trkpt>
      <trkpt lat="45.10656" lon="2.683">
        <ele>1524</ele>
        <time>2020-07-17T23:45:29Z</time>
      </trkpt>
      <trkpt lat="45.10668" lon="2.68287">
        <ele>1523</ele>
        <time>2020-07-17T23:45:49Z</time>
      </trkpt>
      <trkpt lat="45.10675" lon="2.68285">
        <ele>1522</ele>
        <time>2020-07-17T23:45:59Z</time>
      </trkpt>
      <trkpt lat="45.10691" lon="2.68274">
        <ele>1522</ele>
        <time>2020-07-17T23:46:22Z</time>
      </trkpt>
      <trkpt lat="45.10706" lon="2.68274">
        <ele>1519</ele>
        <time>2020-07-17T23:46:42Z</time>
      </trkpt>
      <trkpt lat="45.10729" lon="2.68258">
        <ele>1525</ele>
        <time>2020-07-17T23:47:17Z</time>
      </trkpt>
      <trkpt lat="45.10756" lon="2.68254">
        <ele>1524</ele>
        <time>2020-07-17T23:47:53Z</time>
      </trkpt>
      <trkpt lat="45.10786" lon="2.68265">
        <ele>1508</ele>
        <time>2020-07-17T23:48:34Z</time>
      </trkpt>
      <trkpt lat="45.10803" lon="2.68261">
        <ele>1507</ele>
        <time>2020-07-17T23:48:57Z</time>
      </trkpt>
      <trkpt lat="45.10811" lon="2.68257">
        <ele>1507</ele>
        <time>2020-07-17T23:49:09Z</time>
      </trkpt>
      <trkpt lat="45.10832" lon="2.68263">
        <ele>1499</ele>
        <time>2020-07-17T23:49:37Z</time>
      </trkpt>
      <trkpt lat="45.1084" lon="2.68273">
        <ele>1493</ele>
        <time>2020-07-17T23:49:51Z</time>
      </trkpt>
      <trkpt lat="45.10855" lon="2.68275">
        <ele>1493</ele>
        <time>2020-07-17T23:50:11Z</time>
      </trkpt>
      <trkpt lat="45.10882" lon="2.68285">
        <ele>1490</ele>
        <time>2020-07-17T23:50:49Z</time>
      </trkpt>
      <trkpt lat="45.10888" lon="2.68283">
        <ele>1492</ele>
        <time>2020-07-17T23:50:57Z</time>
      </trkpt>
      <trkpt lat="45.10896" lon="2.68292">
        <ele>1488</ele>
        <time>2020-07-17T23:51:11Z</time>
      </trkpt>
      <trkpt lat="45.109" lon="2.683">
        <ele>1484</ele>
        <time>2020-07-17T23:51:20Z</time>
      </trkpt>
      <trkpt lat="45.10907" lon="2.68301">
        <ele>1484</ele>
        <time>2020-07-17T23:51:29Z</time>
      </trkpt>
      <trkpt lat="45.10908" lon="2.68296">
        <ele>1487</ele>
        <time>2020-07-17T23:51:34Z</time>
      </trkpt>
      <trkpt lat="45.10915" lon="2.68293">
        <ele>1489</ele>
        <time>2020-07-17T23:51:44Z</time>
      </trkpt>
      <trkpt lat="45.10935" lon="2.68305">
        <ele>1488</ele>
        <time>2020-07-17T23:52:13Z</time>
      </trkpt>
      <trkpt lat="45.10988" lon="2.6833">
        <ele>1490</ele>
        <time>2020-07-17T23:53:27Z</time>
      </trkpt>
    </trkseg>
  </trk>
</gpx>